Time;durP1;ratioP1;P1;durP2;ratioP2;P2;SDS_P1;SDS_P2;PMS_P1;PMS_P2;Temp;Humidity;BMP_temperature;BMP_pressure;BME280_temperature;BME280_humidity;BME280_pressure;Samples;Min_cycle;Max_cycle;Signal;HPM_P1;HPM_P2
2023/05/23 00:01:23;;;;;;;57.30;27.30;;;14.80;99.90;;;;;;7287701;19;20187;-91
2023/05/23 00:03:52;;;;;;;63.80;30.07;;;14.80;99.90;;;;;;7287279;19;20256;-91
2023/05/23 00:06:21;;;;;;;62.17;29.57;;;14.80;99.90;;;;;;7287997;19;20190;-91
2023/05/23 00:08:47;;;;;;;69.33;30.40;;;15.00;99.90;;;;;;7289234;19;20189;-90
2023/05/23 00:11:12;;;;;;;65.10;30.27;;;15.20;99.90;;;;;;7301407;19;20612;-92
2023/05/23 00:13:38;;;;;;;65.30;29.63;;;15.00;99.90;;;;;;7305340;19;20194;-92
2023/05/23 00:16:08;;;;;;;65.70;30.13;;;15.00;99.90;;;;;;7287645;19;20218;-92
2023/05/23 00:18:41;;;;;;;67.97;31.57;;;15.10;99.90;;;;;;7287008;19;20203;-91
2023/05/23 00:21:08;;;;;;;64.20;28.97;;;15.10;99.90;;;;;;7288470;19;20199;-91
2023/05/23 00:23:34;;;;;;;74.07;30.47;;;15.10;99.90;;;;;;7287043;19;20191;-91
2023/05/23 00:26:00;;;;;;;60.80;29.20;;;15.10;99.90;;;;;;7287335;19;20205;-90
2023/05/23 00:28:26;;;;;;;63.47;29.83;;;15.00;99.90;;;;;;7293785;19;20193;-90
2023/05/23 00:30:52;;;;;;;71.53;29.77;;;15.10;99.90;;;;;;7294715;19;20189;-90
2023/05/23 00:33:20;;;;;;;66.13;29.07;;;15.10;99.90;;;;;;7293108;19;20218;-89
2023/05/23 00:35:47;;;;;;;68.87;29.90;;;15.20;99.90;;;;;;7295606;19;20193;-90
2023/05/23 00:38:13;;;;;;;65.90;30.63;;;15.20;99.90;;;;;;7301112;19;20643;-90
2023/05/23 00:40:39;;;;;;;69.80;30.17;;;15.10;99.90;;;;;;7316203;19;20198;-89
2023/05/23 00:43:07;;;;;;;72.70;30.37;;;15.30;99.90;;;;;;7294425;19;20194;-90
2023/05/23 00:45:33;;;;;;;67.40;29.17;;;15.30;99.90;;;;;;7292200;19;20197;-90
2023/05/23 00:47:59;;;;;;;67.60;29.37;;;15.30;99.90;;;;;;7294758;19;20283;-91
2023/05/23 00:50:30;;;;;;;67.70;29.67;;;15.30;99.90;;;;;;7294523;19;20188;-90
2023/05/23 00:52:57;;;;;;;70.73;29.23;;;15.30;99.90;;;;;;7293394;19;20190;-91
2023/05/23 00:55:24;;;;;;;77.90;31.50;;;15.00;99.90;;;;;;7295988;19;20182;-91
2023/05/23 00:57:54;;;;;;;63.63;29.23;;;15.00;99.90;;;;;;7294325;19;20210;-91
2023/05/23 01:00:21;;;;;;;65.00;28.27;;;14.80;99.90;;;;;;7293510;19;20192;-91
2023/05/23 01:02:50;;;;;;;70.83;29.60;;;14.90;99.90;;;;;;7294714;19;20216;-91
2023/05/23 01:05:16;;;;;;;71.60;29.77;;;15.10;99.90;;;;;;7294624;19;20545;-92
2023/05/23 01:07:46;;;;;;;69.90;30.17;;;15.30;99.90;;;;;;7312605;19;20183;-90
2023/05/23 01:10:13;;;;;;;75.83;31.53;;;15.40;99.90;;;;;;7316729;19;20434;-92
2023/05/23 01:13:02;;;;;;;78.73;32.40;;;15.40;99.90;;;;;;7314758;19;20187;-91
2023/05/23 01:15:36;;;;;;;77.40;32.67;;;15.50;99.90;;;;;;7294510;19;20192;-91
2023/05/23 01:18:13;;;;;;;82.33;33.40;;;15.60;99.90;;;;;;7294428;19;20200;-90
2023/05/23 01:20:51;;;;;;;82.63;34.37;;;15.30;99.90;;;;;;7295316;19;20187;-91
2023/05/23 01:23:38;;;;;;;80.83;35.17;;;15.30;99.90;;;;;;7271929;19;20211;-91
2023/05/23 01:26:43;;;;;;;89.10;36.30;;;15.20;99.90;;;;;;7293357;19;20180;-91
2023/05/23 01:29:23;;;;;;;86.83;36.27;;;15.20;99.90;;;;;;7192059;19;2004354;-91
2023/05/23 01:31:53;;;;;;;98.67;36.20;;;15.30;99.90;;;;;;7190018;19;2004515;-91
2023/05/23 01:34:20;;;;;;;82.40;32.97;;;15.20;99.90;;;;;;7292266;19;20190;-90
2023/05/23 01:36:52;;;;;;;84.20;34.50;;;15.10;99.90;;;;;;7292662;19;20689;-90
2023/05/23 01:39:19;;;;;;;74.00;33.67;;;15.20;99.90;;;;;;7290639;19;20286;-92
2023/05/23 01:41:45;;;;;;;74.17;33.40;;;15.20;99.90;;;;;;7291819;19;20190;-92
2023/05/23 01:44:11;;;;;;;80.47;34.20;;;15.30;99.90;;;;;;7314090;19;20192;-91
2023/05/23 01:46:38;;;;;;;78.67;34.00;;;15.60;99.90;;;;;;7292562;19;20198;-91
2023/05/23 01:49:05;;;;;;;73.17;33.93;;;15.70;99.90;;;;;;7293767;19;20192;-90
2023/05/23 01:51:33;;;;;;;72.53;31.73;;;15.70;99.90;;;;;;7291841;19;20192;-91
2023/05/23 01:53:59;;;;;;;67.83;31.43;;;15.90;99.90;;;;;;7291656;19;20203;-91
2023/05/23 01:56:27;;;;;;;77.17;32.80;;;15.80;99.90;;;;;;7291175;19;20686;-91
2023/05/23 01:58:53;;;;;;;71.47;33.07;;;15.90;99.90;;;;;;7292551;19;20192;-92
2023/05/23 02:01:20;;;;;;;69.40;32.70;;;16.00;99.90;;;;;;7292406;19;20195;-91
2023/05/23 02:03:46;;;;;;;69.60;31.57;;;16.10;99.90;;;;;;7291233;19;20280;-91
2023/05/23 02:06:12;;;;;;;74.17;32.93;;;16.10;99.90;;;;;;7310189;19;20197;-92
2023/05/23 02:08:38;;;;;;;72.70;33.33;;;16.20;99.90;;;;;;7302336;19;20260;-92
2023/05/23 02:11:04;;;;;;;70.73;33.37;;;16.10;99.90;;;;;;7291292;19;20197;-90
2023/05/23 02:13:30;;;;;;;78.90;33.97;;;16.10;99.90;;;;;;7290884;19;20198;-92
2023/05/23 02:15:56;;;;;;;67.20;33.23;;;16.10;99.90;;;;;;7292127;19;20907;-91
2023/05/23 02:18:25;;;;;;;68.00;32.87;;;16.00;99.90;;;;;;7292419;19;20195;-91
2023/05/23 02:20:51;;;;;;;67.47;33.70;;;16.00;99.90;;;;;;7291860;19;20180;-92
2023/05/23 02:23:17;;;;;;;73.70;34.37;;;16.00;99.90;;;;;;7292296;19;20217;-92
2023/05/23 02:25:42;;;;;;;77.07;35.40;;;16.00;99.90;;;;;;7308365;19;20182;-92
2023/05/23 02:28:10;;;;;;;82.57;34.93;;;16.00;99.90;;;;;;7304772;19;20202;-91
2023/05/23 02:30:36;;;;;;;77.37;35.30;;;15.90;99.90;;;;;;7290374;19;20258;-91
2023/05/23 02:33:06;;;;;;;67.00;33.17;;;15.90;99.90;;;;;;7290006;19;20208;-91
2023/05/23 02:35:33;;;;;;;61.40;30.40;;;15.90;99.90;;;;;;7291450;19;20203;-91
2023/05/23 02:37:59;;;;;;;64.03;31.63;;;15.90;99.90;;;;;;7290333;19;20205;-90
2023/05/23 02:40:25;;;;;;;62.83;30.67;;;15.80;99.90;;;;;;7289573;19;20225;-90
2023/05/23 02:42:51;;;;;;;58.17;28.93;;;15.70;99.90;;;;;;7292186;19;20228;-91
2023/05/23 02:45:17;;;;;;;58.10;28.90;;;15.70;99.90;;;;;;7289733;19;20644;-91
2023/05/23 02:47:43;;;;;;;49.73;25.23;;;15.70;99.90;;;;;;7301468;19;20211;-91
2023/05/23 02:50:09;;;;;;;46.33;23.57;;;15.70;99.90;;;;;;7307344;19;20188;-90
2023/05/23 02:52:35;;;;;;;49.10;23.77;;;15.40;99.90;;;;;;7289642;19;20200;-90
2023/05/23 02:55:02;;;;;;;47.03;23.93;;;15.50;99.90;;;;;;7289644;19;20555;-91
2023/05/23 02:57:31;;;;;;;42.07;20.97;;;15.60;99.90;;;;;;7290105;19;20183;-91
2023/05/23 02:59:57;;;;;;;37.33;19.33;;;15.30;99.90;;;;;;7287775;19;20195;-91
2023/05/23 03:02:23;;;;;;;34.40;19.00;;;15.00;99.90;;;;;;7289928;19;20191;-91
2023/05/23 03:04:49;;;;;;;32.97;18.07;;;15.20;99.90;;;;;;7288093;19;20219;-87
2023/05/23 03:07:15;;;;;;;34.73;18.43;;;15.00;99.90;;;;;;7288554;19;20254;-89
2023/05/23 03:09:41;;;;;;;32.07;17.70;;;14.80;99.90;;;;;;7310816;19;20654;-89
2023/05/23 03:12:07;;;;;;;37.13;17.77;;;14.90;99.90;;;;;;7288642;19;20256;-88
2023/05/23 03:14:33;;;;;;;36.40;18.40;;;14.90;99.90;;;;;;7288244;19;20228;-89
2023/05/23 03:16:59;;;;;;;39.47;18.27;;;14.90;99.90;;;;;;7290288;19;20199;-88
2023/05/23 03:19:25;;;;;;;34.90;18.43;;;15.10;99.90;;;;;;7288016;19;20190;-88
2023/05/23 03:21:51;;;;;;;40.00;18.67;;;15.00;99.90;;;;;;7289344;19;20613;-89
2023/05/23 03:24:17;;;;;;;41.97;19.50;;;14.90;99.90;;;;;;7288055;19;20193;-88
2023/05/23 03:26:44;;;;;;;41.30;18.80;;;14.80;99.90;;;;;;7302583;19;20542;-88
2023/05/23 03:29:11;;;;;;;37.53;18.70;;;14.70;99.90;;;;;;7310451;19;20256;-88
2023/05/23 03:31:37;;;;;;;41.40;19.63;;;14.80;99.90;;;;;;7288372;19;20187;-88
2023/05/23 03:34:06;;;;;;;37.63;19.00;;;14.80;99.90;;;;;;7287928;19;20207;-88
2023/05/23 03:36:32;;;;;;;37.93;18.53;;;14.80;99.90;;;;;;7288280;19;20709;-88
2023/05/23 03:38:58;;;;;;;40.53;19.83;;;14.80;99.90;;;;;;7287285;19;20848;-88
2023/05/23 03:41:25;;;;;;;40.73;18.83;;;14.70;99.90;;;;;;7288818;19;20196;-88
2023/05/23 03:43:51;;;;;;;41.40;19.90;;;14.60;99.90;;;;;;7287007;19;20283;-87
2023/05/23 03:46:17;;;;;;;42.40;21.20;;;14.50;99.90;;;;;;7286538;19;20182;-87
2023/05/23 03:48:44;;;;;;;45.70;21.63;;;14.60;99.90;;;;;;7296858;19;20196;-88
2023/05/23 03:51:12;;;;;;;42.40;22.67;;;14.50;99.90;;;;;;7309328;19;20536;-88
2023/05/23 03:53:38;;;;;;;45.23;23.47;;;14.60;99.90;;;;;;7287069;19;20182;-88
2023/05/23 03:56:04;;;;;;;44.17;23.07;;;14.50;99.90;;;;;;7288603;19;20186;-87
2023/05/23 03:58:30;;;;;;;37.87;22.10;;;14.50;99.90;;;;;;7287221;19;20200;-88
2023/05/23 04:01:01;;;;;;;41.50;21.70;;;14.30;99.90;;;;;;7287697;19;20186;-88
2023/05/23 04:03:31;;;;;;;47.33;23.47;;;14.40;99.90;;;;;;7287594;19;20256;-88
2023/05/23 04:06:01;;;;;;;45.50;24.67;;;14.50;99.90;;;;;;7286150;19;20190;-87
2023/05/23 04:08:28;;;;;;;43.43;23.83;;;14.60;99.90;;;;;;7286212;19;20190;-88
2023/05/23 04:10:54;;;;;;;46.37;24.60;;;14.50;99.90;;;;;;7287342;19;20656;-88
2023/05/23 04:13:23;;;;;;;49.93;25.60;;;14.50;99.90;;;;;;7286279;19;20199;-88
2023/05/23 04:15:51;;;;;;;54.27;25.63;;;14.50;99.90;;;;;;7287267;19;20190;-87
2023/05/23 04:18:18;;;;;;;54.43;25.93;;;14.50;99.90;;;;;;7286321;19;20209;-88
2023/05/23 04:20:44;;;;;;;52.17;26.60;;;14.50;99.90;;;;;;7294875;19;20216;-87
2023/05/23 04:23:11;;;;;;;61.30;27.27;;;14.50;99.90;;;;;;7309630;19;20184;-88
2023/05/23 04:25:40;;;;;;;66.30;28.80;;;14.40;99.90;;;;;;7287053;19;20203;-88
2023/05/23 04:28:33;;;;;;;57.03;28.30;;;14.40;99.90;;;;;;7184989;19;2004651;-88
2023/05/23 04:31:01;;;;;;;58.73;29.43;;;14.40;99.90;;;;;;7286902;19;20218;-88
2023/05/23 04:33:30;;;;;;;63.73;30.13;;;14.50;99.90;;;;;;7285930;19;20223;-87
2023/05/23 04:35:56;;;;;;;57.80;30.27;;;14.70;99.90;;;;;;7287609;19;20210;-89
2023/05/23 04:38:23;;;;;;;53.20;30.73;;;14.80;99.90;;;;;;7287037;19;20185;-87
2023/05/23 04:40:51;;;;;;;60.83;32.37;;;14.60;99.90;;;;;;7284760;19;21194;-88
2023/05/23 04:43:41;;;;;;;53.10;31.13;;;14.60;99.90;;;;;;7287119;19;20221;-88
2023/05/23 04:46:25;;;;;;;53.07;31.00;;;14.80;99.90;;;;;;7183614;19;2004610;-88
2023/05/23 04:49:11;;;;;;;50.63;29.67;;;14.80;99.90;;;;;;7287925;19;20193;-88
2023/05/23 04:51:38;;;;;;;57.93;30.23;;;14.80;99.90;;;;;;7286530;19;20194;-88
2023/05/23 04:54:16;;;;;;;58.43;30.87;;;14.90;99.90;;;;;;7270908;19;20212;-88
2023/05/23 04:56:42;;;;;;;54.20;30.30;;;15.10;99.90;;;;;;7319806;19;20192;-89
2023/05/23 04:59:10;;;;;;;56.43;30.07;;;15.10;99.90;;;;;;7303272;19;20186;-88
2023/05/23 05:01:39;;;;;;;52.00;29.07;;;15.20;99.90;;;;;;7286280;19;21561;-89
2023/05/23 05:04:06;;;;;;;51.47;29.63;;;15.00;99.90;;;;;;7287602;19;20583;-89
2023/05/23 05:06:33;;;;;;;57.33;30.30;;;15.20;99.90;;;;;;7297866;19;20230;-90
2023/05/23 05:08:59;;;;;;;60.10;32.30;;;15.30;99.90;;;;;;7308495;19;20201;-89
2023/05/23 05:11:26;;;;;;;61.83;31.80;;;15.40;99.90;;;;;;7313260;19;20197;-89
2023/05/23 05:13:53;;;;;;;54.07;32.80;;;15.60;99.90;;;;;;7307921;19;20187;-89
2023/05/23 05:16:19;;;;;;;61.23;31.80;;;15.60;99.90;;;;;;7314509;19;20208;-88
2023/05/23 05:18:45;;;;;;;53.67;30.77;;;15.60;99.90;;;;;;7297558;19;20202;-89
2023/05/23 05:21:12;;;;;;;53.40;28.60;;;15.60;99.90;;;;;;7317196;19;20190;-89
2023/05/23 05:23:37;;;;;;;58.97;30.23;;;15.40;99.90;;;;;;7308559;19;20241;-89
2023/05/23 05:26:05;;;;;;;60.37;29.83;;;15.50;99.90;;;;;;7317493;19;20219;-88
2023/05/23 05:28:31;;;;;;;51.77;26.80;;;15.60;99.90;;;;;;7310133;19;20202;-88
2023/05/23 05:30:58;;;;;;;53.97;26.20;;;15.70;99.90;;;;;;7297172;19;20197;-89
2023/05/23 05:33:24;;;;;;;46.73;24.60;;;15.70;99.90;;;;;;7299214;19;20708;-89
2023/05/23 05:36:02;;;;;;;47.07;24.53;;;15.40;99.90;;;;;;7298860;19;20201;-88
2023/05/23 05:38:29;;;;;;;48.63;24.00;;;15.30;99.90;;;;;;7298493;19;20209;-89
2023/05/23 05:40:55;;;;;;;53.70;25.07;;;15.20;99.90;;;;;;7296642;19;20618;-89
2023/05/23 05:43:22;;;;;;;51.07;23.57;;;15.30;99.90;;;;;;7296384;19;20611;-89
2023/05/23 05:45:48;;;;;;;42.17;21.60;;;15.40;99.90;;;;;;7295653;19;20187;-89
2023/05/23 05:48:15;;;;;;;50.03;22.37;;;15.20;99.90;;;;;;7301537;19;20257;-89
2023/05/23 05:50:44;;;;;;;46.33;21.10;;;15.10;99.90;;;;;;7322350;19;20190;-88
2023/05/23 05:53:12;;;;;;;38.10;19.40;;;14.80;99.90;;;;;;7293245;19;20207;-89
2023/05/23 05:55:38;;;;;;;45.63;21.03;;;14.90;99.90;;;;;;7292668;19;20193;-89
2023/05/23 05:58:04;;;;;;;45.33;20.13;;;15.00;99.90;;;;;;7289745;19;20659;-89
2023/05/23 06:00:42;;;;;;;50.77;18.57;;;15.20;99.90;;;;;;7289272;19;20198;-89
2023/05/23 06:03:08;;;;;;;44.63;17.10;;;15.30;99.90;;;;;;7289391;19;20214;-88
2023/05/23 06:05:47;;;;;;;38.17;16.03;;;15.20;99.90;;;;;;7262596;19;20203;-89
2023/05/23 06:08:13;;;;;;;38.10;16.03;;;15.00;99.90;;;;;;7301276;19;20287;-88
2023/05/23 06:10:39;;;;;;;44.50;16.70;;;15.20;99.90;;;;;;7301897;19;20184;-89
2023/05/23 06:13:05;;;;;;;46.13;16.13;;;15.20;99.90;;;;;;7286925;19;20218;-90
2023/05/23 06:15:32;;;;;;;42.73;15.33;;;15.30;99.90;;;;;;7291138;19;20265;-89
2023/05/23 06:17:58;;;;;;;47.60;17.17;;;15.20;99.90;;;;;;7298811;19;20193;-89
2023/05/23 06:20:25;;;;;;;45.87;17.37;;;15.10;99.90;;;;;;7292627;19;20573;-89
2023/05/23 06:22:52;;;;;;;42.73;16.03;;;15.20;99.90;;;;;;7287309;19;20199;-89
2023/05/23 06:25:17;;;;;;;42.93;15.63;;;15.10;99.90;;;;;;7285347;19;20185;-89
2023/05/23 06:27:46;;;;;;;46.80;15.90;;;14.90;99.90;;;;;;7284647;19;20189;-88
2023/05/23 06:30:13;;;;;;;44.07;16.03;;;14.90;99.90;;;;;;7309332;19;20576;-89
2023/05/23 06:32:40;;;;;;;40.90;15.90;;;14.80;99.90;;;;;;7287600;19;20196;-89
2023/05/23 06:35:06;;;;;;;48.93;16.00;;;14.70;99.90;;;;;;7286570;19;20201;-89
2023/05/23 06:37:33;;;;;;;52.47;16.67;;;14.40;99.90;;;;;;7288201;19;20211;-90
2023/05/23 06:39:59;;;;;;;48.93;18.03;;;14.30;99.90;;;;;;7287831;19;20207;-88
2023/05/23 06:42:26;;;;;;;41.03;17.07;;;14.40;99.90;;;;;;7288528;19;20186;-89
2023/05/23 06:45:10;;;;;;;56.40;17.37;;;14.40;99.90;;;;;;7287683;19;20339;-89
2023/05/23 06:47:37;;;;;;;44.23;17.70;;;14.50;99.90;;;;;;7286479;19;20196;-88
2023/05/23 06:50:03;;;;;;;47.83;16.33;;;14.50;99.90;;;;;;7286963;19;20182;-88
2023/05/23 06:52:31;;;;;;;42.87;15.70;;;14.50;99.90;;;;;;7286752;19;20196;-89
2023/05/23 06:54:58;;;;;;;49.47;16.63;;;14.50;99.90;;;;;;7286385;19;20196;-89
2023/05/23 06:57:24;;;;;;;36.93;14.70;;;14.50;99.90;;;;;;7287284;19;20196;-89
2023/05/23 06:59:50;;;;;;;42.13;14.97;;;14.60;99.90;;;;;;7285505;19;20189;-88
2023/05/23 07:02:16;;;;;;;32.73;12.63;;;14.80;99.90;;;;;;7287344;19;20186;-90
2023/05/23 07:04:42;;;;;;;34.83;13.60;;;14.90;99.90;;;;;;7306664;19;20354;-89
2023/05/23 07:07:15;;;;;;;48.17;13.43;;;15.20;99.90;;;;;;7265362;19;20298;-89
2023/05/23 07:09:43;;;;;;;28.37;11.97;;;15.30;99.90;;;;;;7307759;19;20196;-89
2023/05/23 07:12:13;;;;;;;39.00;12.13;;;15.40;99.90;;;;;;7282327;19;20586;-88
2023/05/23 07:14:43;;;;;;;27.90;10.87;;;15.40;99.90;;;;;;7308655;19;20725;-88
2023/05/23 07:17:10;;;;;;;29.40;11.03;;;15.20;99.90;;;;;;7287194;19;20317;-89
2023/05/23 07:19:37;;;;;;;30.17;10.10;;;15.10;99.90;;;;;;7285078;19;20536;-89
2023/05/23 07:22:03;;;;;;;28.30;9.77;;;15.30;99.90;;;;;;7289299;19;20198;-88
2023/05/23 07:24:30;;;;;;;25.73;8.90;;;15.40;99.90;;;;;;7301328;19;20195;-88
2023/05/23 07:26:57;;;;;;;24.57;8.57;;;15.60;99.90;;;;;;7285366;19;20204;-89
2023/05/23 07:29:25;;;;;;;21.77;8.43;;;15.60;99.90;;;;;;7286638;19;20197;-89
2023/05/23 07:31:52;;;;;;;21.00;7.53;;;15.50;99.90;;;;;;7285215;19;20670;-89
2023/05/23 07:34:20;;;;;;;20.43;8.13;;;15.50;99.90;;;;;;7284083;19;20223;-88
2023/05/23 07:36:51;;;;;;;26.33;9.20;;;15.60;99.90;;;;;;7283884;19;20193;-89
2023/05/23 07:39:21;;;;;;;27.73;9.60;;;15.80;99.90;;;;;;7284869;19;20199;-89
2023/05/23 07:41:49;;;;;;;28.50;11.03;;;15.80;99.90;;;;;;7285137;19;20200;-88
2023/05/23 07:44:16;;;;;;;35.00;13.13;;;16.10;99.90;;;;;;7283762;19;20261;-89
2023/05/23 07:46:42;;;;;;;29.53;13.43;;;16.10;99.90;;;;;;7306707;19;20186;-89
2023/05/23 07:49:09;;;;;;;20.73;10.97;;;16.20;99.90;;;;;;7287929;19;20216;-90
2023/05/23 07:51:35;;;;;;;21.27;9.13;;;16.30;99.90;;;;;;7285278;19;20176;-89
2023/05/23 07:54:01;;;;;;;20.80;8.47;;;16.40;99.90;;;;;;7284158;19;20195;-89
2023/05/23 07:56:28;;;;;;;17.83;7.47;;;17.30;99.90;;;;;;7285636;19;20246;-89
2023/05/23 07:58:54;;;;;;;18.90;6.83;;;18.50;99.90;;;;;;7284603;19;20213;-89
2023/05/23 08:01:21;;;;;;;27.20;6.83;;;20.00;99.90;;;;;;7285151;19;20565;-90
2023/05/23 08:04:07;;;;;;;23.17;7.27;;;19.90;99.90;;;;;;7284596;19;20190;-89
2023/05/23 08:06:46;;;;;;;23.13;7.43;;;19.10;99.90;;;;;;7276156;19;20194;-89
2023/05/23 08:09:12;;;;;;;29.07;7.83;;;18.80;99.90;;;;;;7308305;19;20189;-89
2023/05/23 08:11:43;;;;;;;30.90;8.03;;;18.60;99.90;;;;;;7284682;19;20218;-89
2023/05/23 08:14:09;;;;;;;26.03;7.30;;;18.60;99.90;;;;;;7284570;19;20196;-90
2023/05/23 08:16:36;;;;;;;26.53;7.50;;;19.30;99.90;;;;;;7285508;19;20202;-89
2023/05/23 08:19:02;;;;;;;23.37;7.53;;;19.90;99.90;;;;;;7283336;19;20249;-89
2023/05/23 08:21:28;;;;;;;23.87;7.13;;;21.10;99.90;;;;;;7285019;19;20210;-89
2023/05/23 08:23:54;;;;;;;22.17;7.40;;;21.50;99.90;;;;;;7283954;19;20188;-89
2023/05/23 08:26:20;;;;;;;27.67;7.90;;;21.30;99.90;;;;;;7283615;19;20548;-89
2023/05/23 08:28:47;;;;;;;23.03;7.80;;;20.80;99.90;;;;;;7302598;19;20193;-90
2023/05/23 08:31:13;;;;;;;26.23;7.77;;;20.30;99.90;;;;;;7306014;19;20192;-89
2023/05/23 08:33:39;;;;;;;23.17;8.10;;;19.50;99.90;;;;;;7284031;19;20688;-90
2023/05/23 08:36:05;;;;;;;26.73;7.83;;;19.40;99.90;;;;;;7284822;19;20180;-90
2023/05/23 08:38:32;;;;;;;26.47;8.00;;;19.90;99.90;;;;;;7283305;19;20204;-90
2023/05/23 08:41:15;;;;;;;29.87;7.73;;;20.20;99.90;;;;;;7284116;19;20186;-90
2023/05/23 08:43:41;;;;;;;25.50;8.00;;;20.80;99.90;;;;;;7284914;19;20212;-89
2023/05/23 08:46:11;;;;;;;25.17;7.40;;;21.40;99.90;;;;;;7284639;19;20186;-90
2023/05/23 08:48:38;;;;;;;20.13;8.07;;;21.40;99.90;;;;;;7285317;19;20191;-90
2023/05/23 08:51:08;;;;;;;17.83;7.67;;;21.60;99.90;;;;;;7291063;19;20204;-89
2023/05/23 08:53:37;;;;;;;18.80;7.87;;;21.10;99.90;;;;;;7290431;19;20703;-90
2023/05/23 08:56:05;;;;;;;17.70;6.73;;;20.90;99.90;;;;;;7291073;19;20300;-90
2023/05/23 08:58:41;;;;;;;20.83;8.20;;;21.40;99.90;;;;;;7290320;19;20203;-89
2023/05/23 09:01:09;;;;;;;20.13;7.53;;;21.40;99.90;;;;;;7289074;19;20194;-89
2023/05/23 09:03:36;;;;;;;25.37;8.20;;;21.80;99.90;;;;;;7289851;19;20214;-90
2023/05/23 09:06:09;;;;;;;20.60;8.30;;;21.40;99.90;;;;;;7289923;19;20307;-90
2023/05/23 09:08:36;;;;;;;20.97;7.67;;;21.60;99.90;;;;;;7290628;19;20202;-90
2023/05/23 09:11:04;;;;;;;23.03;7.33;;;21.20;99.90;;;;;;7289333;19;20252;-90
2023/05/23 09:13:33;;;;;;;24.53;7.57;;;20.90;99.90;;;;;;7289104;19;20531;-90
2023/05/23 09:16:06;;;;;;;18.67;7.10;;;20.30;99.90;;;;;;7288736;19;20199;-89
2023/05/23 09:18:41;;;;;;;24.50;8.20;;;20.20;99.90;;;;;;7290088;19;20655;-89
2023/05/23 09:21:10;;;;;;;18.17;8.10;;;20.90;99.90;;;;;;7289634;19;20267;-89
2023/05/23 09:23:40;;;;;;;21.40;8.30;;;20.90;99.90;;;;;;7291507;19;20305;-90
2023/05/23 09:26:14;;;;;;;25.43;8.60;;;20.70;99.90;;;;;;7288780;19;20690;-90
2023/05/23 09:28:42;;;;;;;29.13;9.80;;;20.40;99.90;;;;;;7289431;19;20195;-90
2023/05/23 09:31:08;;;;;;;26.00;10.17;;;19.80;99.90;;;;;;7291653;19;20284;-90
2023/05/23 09:33:47;;;;;;;24.80;10.10;;;19.60;99.90;;;;;;7308835;19;20200;-90
2023/05/23 09:36:13;;;;;;;25.03;10.80;;;19.20;99.90;;;;;;7291601;19;20177;-90
2023/05/23 09:38:41;;;;;;;24.03;11.13;;;18.90;99.90;;;;;;7291092;19;20216;-90
2023/05/23 09:41:12;;;;;;;21.07;11.50;;;18.70;99.90;;;;;;7290403;19;20185;-89
2023/05/23 09:43:52;;;;;;;25.13;11.63;;;19.00;99.90;;;;;;7289243;19;20185;-89
2023/05/23 09:46:20;;;;;;;19.40;10.87;;;18.70;99.90;;;;;;7268314;19;20644;-89
2023/05/23 09:48:47;;;;;;;19.73;10.40;;;18.40;99.90;;;;;;7289890;19;20181;-89
2023/05/23 09:51:13;;;;;;;25.50;10.03;;;18.50;99.90;;;;;;7311057;19;20228;-90
2023/05/23 09:53:39;;;;;;;23.83;10.57;;;18.30;99.90;;;;;;7290376;19;20186;-89
2023/05/23 09:56:10;;;;;;;20.57;9.10;;;18.00;99.90;;;;;;7290566;19;20281;-90
2023/05/23 09:58:39;;;;;;;23.47;8.40;;;17.90;99.90;;;;;;7289641;19;20189;-89
2023/05/23 10:01:08;;;;;;;23.00;7.67;;;18.00;99.90;;;;;;7290956;19;20326;-90
2023/05/23 10:03:39;;;;;;;23.37;7.47;;;18.10;99.90;;;;;;7290719;19;20203;-89
2023/05/23 10:06:25;;;;;;;18.27;7.23;;;18.20;99.90;;;;;;7289843;19;20182;-90
2023/05/23 10:09:03;;;;;;;16.83;6.73;;;18.30;99.90;;;;;;7187803;19;2004476;-90
2023/05/23 10:11:32;;;;;;;19.90;6.70;;;18.70;99.90;;;;;;7289583;19;20190;-90
2023/05/23 10:14:09;;;;;;;23.77;8.83;;;19.10;99.90;;;;;;7289584;19;20185;-91
2023/05/23 10:16:57;;;;;;;22.87;11.00;;;19.30;99.90;;;;;;7289987;19;20186;-90
2023/05/23 10:19:39;;;;;;;23.20;11.53;;;19.10;99.90;;;;;;7187013;19;2006051;-90
2023/05/23 10:22:08;;;;;;;19.73;10.70;;;18.70;99.90;;;;;;7290077;19;20176;-90
2023/05/23 10:24:35;;;;;;;23.70;9.73;;;18.90;99.90;;;;;;7289476;19;20190;-89
2023/05/23 10:27:02;;;;;;;20.53;8.70;;;18.90;99.90;;;;;;7289639;19;20200;-89
2023/05/23 10:29:32;;;;;;;16.53;8.60;;;18.80;99.90;;;;;;7288838;19;20177;-89
2023/05/23 10:32:01;;;;;;;18.37;9.03;;;18.80;99.90;;;;;;7288214;19;20193;-89
2023/05/23 10:34:37;;;;;;;22.73;9.53;;;18.70;99.90;;;;;;7288479;19;20192;-88
2023/05/23 10:37:08;;;;;;;18.83;9.83;;;18.50;99.90;;;;;;7292111;19;20239;-88
2023/05/23 10:39:56;;;;;;;20.73;9.33;;;18.90;99.90;;;;;;7294259;19;20217;-89
2023/05/23 10:42:45;;;;;;;17.23;9.50;;;19.70;99.90;;;;;;7186599;19;2004600;-88
2023/05/23 10:45:22;;;;;;;16.83;9.63;;;19.50;99.90;;;;;;7289318;19;20292;-89
2023/05/23 10:47:52;;;;;;;15.07;9.03;;;19.20;99.90;;;;;;7265091;19;20199;-90
2023/05/23 10:51:00;;;;;;;21.70;11.10;;;19.40;99.90;;;;;;7288515;19;20288;-89
2023/05/23 10:53:28;;;;;;;20.80;10.10;;;19.70;99.90;;;;;;7183892;19;2004591;-89
2023/05/23 10:55:57;;;;;;;15.63;7.60;;;19.60;99.90;;;;;;7287900;19;20185;-90
2023/05/23 10:58:23;;;;;;;17.93;6.80;;;19.50;99.90;;;;;;7287271;19;20193;-89
2023/05/23 11:01:01;;;;;;;17.27;6.10;;;19.80;99.90;;;;;;7288676;19;20225;-90
2023/05/23 11:03:37;;;;;;;14.23;6.33;;;20.50;99.90;;;;;;7289174;19;20253;-90
2023/05/23 11:06:04;;;;;;;14.70;5.37;;;20.80;99.90;;;;;;7287930;19;20224;-90
2023/05/23 11:08:41;;;;;;;13.77;5.03;;;21.60;99.90;;;;;;7288256;19;20665;-90
2023/05/23 11:11:08;;;;;;;11.73;5.10;;;21.70;99.90;;;;;;7286291;19;20189;-89
2023/05/23 11:13:52;;;;;;;9.77;4.10;;;21.50;99.90;;;;;;7285827;19;20183;-90
2023/05/23 11:16:26;;;;;;;9.70;4.30;;;21.10;99.90;;;;;;7266666;19;20188;-90
2023/05/23 11:19:16;;;;;;;16.43;4.70;;;21.90;99.90;;;;;;7286018;19;20198;-91
2023/05/23 11:21:43;;;;;;;16.07;4.60;;;22.00;99.90;;;;;;7288783;19;20797;-89
2023/05/23 11:24:09;;;;;;;15.30;4.73;;;21.40;99.90;;;;;;7287322;19;20181;-89
2023/05/23 11:26:35;;;;;;;14.63;4.40;;;20.90;99.90;;;;;;7287962;19;20184;-89
2023/05/23 11:29:03;;;;;;;11.90;4.40;;;20.80;99.90;;;;;;7287506;19;20196;-90
2023/05/23 11:31:29;;;;;;;13.63;4.10;;;20.90;99.90;;;;;;7286952;19;20184;-89
2023/05/23 11:33:55;;;;;;;14.47;4.10;;;21.00;99.90;;;;;;7286498;19;20198;-90
2023/05/23 11:36:21;;;;;;;11.73;3.30;;;21.50;99.90;;;;;;7288119;19;20198;-89
2023/05/23 11:38:51;;;;;;;16.90;4.03;;;21.60;99.90;;;;;;7286619;19;20196;-89
2023/05/23 11:41:20;;;;;;;17.07;3.87;;;21.80;99.90;;;;;;7288594;19;20226;-89
2023/05/23 11:43:50;;;;;;;13.07;3.50;;;22.10;99.90;;;;;;7299722;19;20200;-89
2023/05/23 11:46:16;;;;;;;13.17;3.83;;;21.70;99.90;;;;;;7290191;19;20286;-90
2023/05/23 11:48:46;;;;;;;16.00;3.80;;;21.90;99.90;;;;;;7309803;19;20196;-90
2023/05/23 11:51:12;;;;;;;17.60;3.80;;;22.40;99.90;;;;;;7287087;19;20191;-90
2023/05/23 11:53:38;;;;;;;16.10;4.70;;;22.30;99.90;;;;;;7287019;19;20184;-89
2023/05/23 11:56:04;;;;;;;17.00;3.87;;;22.20;99.90;;;;;;7286331;19;22045;-89
2023/05/23 11:58:34;;;;;;;16.77;4.40;;;22.40;99.90;;;;;;7287241;19;20256;-89
2023/05/23 12:01:08;;;;;;;17.50;4.53;;;22.50;99.90;;;;;;7287959;19;20196;-90
2023/05/23 12:03:43;;;;;;;15.70;3.80;;;22.20;99.90;;;;;;7287908;19;20204;-89
2023/05/23 12:06:09;;;;;;;19.47;3.80;;;22.50;99.90;;;;;;7287451;19;20191;-90
2023/05/23 12:08:35;;;;;;;16.37;3.90;;;22.10;99.90;;;;;;7287296;19;20962;-90
2023/05/23 12:11:01;;;;;;;16.80;4.13;;;21.60;99.90;;;;;;7286166;19;20591;-90
2023/05/23 12:13:28;;;;;;;20.27;4.33;;;21.60;99.90;;;;;;7285438;19;20229;-90
2023/05/23 12:16:01;;;;;;;14.47;3.83;;;21.60;99.90;;;;;;7285849;19;20177;-90
2023/05/23 12:18:28;;;;;;;15.00;3.93;;;21.50;99.90;;;;;;7286092;19;20200;-90
2023/05/23 12:20:54;;;;;;;19.37;4.60;;;21.40;99.90;;;;;;7287430;19;20186;-89
2023/05/23 12:23:22;;;;;;;19.03;4.33;;;21.20;99.90;;;;;;7290007;19;20567;-90
2023/05/23 12:25:52;;;;;;;21.20;4.03;;;20.80;99.90;;;;;;7294047;19;20191;-90
2023/05/23 12:28:19;;;;;;;15.57;3.57;;;21.00;99.90;;;;;;7295576;19;20654;-89
2023/05/23 12:30:45;;;;;;;15.90;3.30;;;21.40;99.90;;;;;;7314356;19;20204;-89
2023/05/23 12:33:11;;;;;;;20.90;4.50;;;21.30;99.90;;;;;;7307317;19;20195;-90
2023/05/23 12:35:41;;;;;;;20.93;4.40;;;21.00;99.90;;;;;;7293740;19;20201;-90
2023/05/23 12:38:07;;;;;;;25.90;4.83;;;20.50;99.90;;;;;;7295756;19;20199;-91
2023/05/23 12:40:33;;;;;;;34.17;6.23;;;20.10;99.90;;;;;;7292900;19;20523;-90